createdAt,value
2022-08-10T00:02:19.274Z,98818.53
2022-08-10T00:05:22.325Z,98816.13
2022-08-10T00:08:26.088Z,98815.97
2022-08-10T00:11:28.999Z,98815.63
2022-08-10T00:14:33.189Z,98812.28
2022-08-10T00:17:36.094Z,98810.09
2022-08-10T00:20:39.031Z,98825.16
2022-08-10T00:23:42.079Z,98830.97
2022-08-10T00:27:49.919Z,98831.44
2022-08-10T00:30:10.633Z,98822.97
2022-08-10T00:33:13.434Z,98816.72
2022-08-10T00:36:16.189Z,98823.94
2022-08-10T00:39:18.910Z,98823.31
2022-08-10T00:42:21.901Z,98821.56
2022-08-10T00:45:25.983Z,98810.19
2022-08-10T00:48:30.345Z,98815.94
2022-08-10T00:51:43.226Z,98815.31
2022-08-10T00:54:51.816Z,98810.19
2022-08-10T00:57:54.807Z,98809.53
2022-08-10T01:00:59.826Z,98816.28
2022-08-10T01:04:40.070Z,98814.69
2022-08-10T01:07:43.069Z,98819.81
2022-08-10T01:10:56.562Z,98809.69
2022-08-10T01:14:08.430Z,98819.00
2022-08-10T01:17:15.309Z,98816.13
2022-08-10T01:20:30.166Z,98815.78
2022-08-10T01:24:06.590Z,98812.88
2022-08-10T01:27:27.030Z,98812.56
2022-08-10T01:30:34.611Z,98819.31
2022-08-10T01:33:59.089Z,98823.97
2022-08-10T01:37:09.132Z,98819.66
2022-08-10T01:40:16.740Z,98821.66
2022-08-10T01:43:20.880Z,98815.91
2022-08-10T01:46:26.251Z,98821.81
2022-08-10T01:49:30.040Z,98816.38
2022-08-10T01:52:34.387Z,98830.31
2022-08-10T01:55:39.222Z,98824.84
2022-08-10T01:58:43.921Z,98825.63
2022-08-10T02:01:51.383Z,98818.06
2022-08-10T02:04:56.115Z,98825.44
2022-08-10T02:08:01.787Z,98831.31
2022-08-10T02:11:06.227Z,98828.28
2022-08-10T02:14:11.914Z,98824.28
2022-08-10T02:18:00.903Z,98822.19
2022-08-10T02:20:47.802Z,98821.47
2022-08-10T02:23:54.141Z,98821.78
2022-08-10T02:27:05.749Z,98826.53
2022-08-10T02:30:11.255Z,98821.22
2022-08-10T02:33:18.293Z,98824.06
2022-08-10T02:36:23.464Z,98826.72
2022-08-10T02:39:27.226Z,98829.28
2022-08-10T02:45:20.715Z,98831.16
2022-08-10T02:46:04.529Z,98827.56
2022-08-10T02:49:13.952Z,98829.44
2022-08-10T02:52:20.605Z,98830.66
2022-08-10T02:55:32.785Z,98829.50
2022-08-10T02:58:40.933Z,98833.84
2022-08-10T03:01:47.693Z,98834.44
2022-08-10T03:04:58.070Z,98826.91
2022-08-10T03:08:03.003Z,98827.81
2022-08-10T03:11:07.796Z,98827.31
2022-08-10T03:14:11.817Z,98821.50
2022-08-10T03:17:17.922Z,98825.75
2022-08-10T03:20:37.310Z,98830.69
2022-08-10T03:23:42.573Z,98830.38
2022-08-10T03:26:45.451Z,98831.59
2022-08-10T03:30:28.626Z,98833.81
2022-08-10T03:33:13.897Z,98844.50
2022-08-10T03:36:42.227Z,98841.88
2022-08-10T03:39:40.975Z,98838.06
2022-08-10T03:42:45.679Z,98844.72
2022-08-10T03:45:55.839Z,98840.91
2022-08-10T03:49:03.238Z,98842.91
2022-08-10T03:52:07.621Z,98838.41
2022-08-10T03:55:10.822Z,98846.56
2022-08-10T03:58:13.815Z,98838.50
2022-08-10T04:01:17.669Z,98844.25
2022-08-10T04:04:24.595Z,98847.09
2022-08-10T04:07:29.516Z,98852.00
2022-08-10T04:10:32.317Z,98850.81
2022-08-10T04:13:35.108Z,98855.94
2022-08-10T04:16:37.911Z,98860.16
2022-08-10T04:19:45.917Z,98865.38
2022-08-10T04:22:53.505Z,98864.16
2022-08-10T04:25:57.193Z,98868.81
2022-08-10T04:29:00.117Z,98870.09
2022-08-10T04:32:05.918Z,98868.19
2022-08-10T04:35:10.927Z,98870.09
2022-08-10T04:38:16.648Z,98867.59
2022-08-10T04:41:19.901Z,98868.09
2022-08-10T04:44:22.572Z,98881.16
2022-08-10T04:47:51.255Z,98872.22
2022-08-10T04:50:55.548Z,98875.44
2022-08-10T04:54:08.151Z,98873.72
2022-08-10T04:57:12.869Z,98865.66
2022-08-10T05:00:19.009Z,98869.88
2022-08-10T05:03:23.027Z,98867.34
2022-08-10T05:06:26.797Z,98865.38
2022-08-10T05:09:32.115Z,98866.56
2022-08-10T05:12:38.828Z,98861.81
2022-08-10T05:15:44.248Z,98863.59
2022-08-10T05:18:48.236Z,98874.84
2022-08-10T05:22:04.167Z,98879.84
2022-08-10T05:25:11.825Z,98881.75
2022-08-10T05:28:14.569Z,98875.50
2022-08-10T05:31:23.972Z,98873.31
2022-08-10T05:34:28.654Z,98876.59
2022-08-10T05:38:11.592Z,98876.47
2022-08-10T05:40:58.144Z,98883.06
2022-08-10T05:44:01.100Z,98880.59
2022-08-10T05:47:04.198Z,98884.19
2022-08-10T05:50:08.137Z,98877.69
2022-08-10T05:54:01.478Z,98876.31
2022-08-10T05:56:56.982Z,98879.47
2022-08-10T06:00:34.427Z,98880.34
2022-08-10T06:03:28.750Z,98876.38
2022-08-10T06:06:35.087Z,98877.88
2022-08-10T06:09:59.777Z,98881.25
2022-08-10T06:13:30.658Z,98884.50
2022-08-10T06:16:38.882Z,98881.97
2022-08-10T06:19:43.117Z,98895.28
2022-08-10T06:22:45.874Z,98879.22
2022-08-10T06:26:11.422Z,98887.38
2022-08-10T06:29:15.875Z,98874.69
2022-08-10T06:32:19.520Z,98872.38
2022-08-10T06:35:24.101Z,98870.53
2022-08-10T06:38:29.702Z,98868.25
2022-08-10T06:42:01.360Z,98866.63
2022-08-10T06:45:05.601Z,98866.34
2022-08-10T06:48:14.989Z,98876.75
2022-08-10T06:51:23.779Z,98873.47
2022-08-10T06:54:29.887Z,98876.50
2022-08-10T06:57:35.597Z,98878.38
2022-08-10T07:00:44.016Z,98874.72
2022-08-10T07:03:54.913Z,98874.50
2022-08-10T07:07:00.189Z,98879.75
2022-08-10T07:10:02.958Z,98877.88
2022-08-10T07:13:06.554Z,98875.06
2022-08-10T07:16:13.281Z,98873.34
2022-08-10T07:19:18.142Z,98873.59
2022-08-10T07:23:01.734Z,98877.09
2022-08-10T07:25:49.175Z,98862.16
2022-08-10T07:28:53.714Z,98868.38
2022-08-10T07:31:59.819Z,98860.50
2022-08-10T07:35:03.750Z,98865.72
2022-08-10T07:38:11.429Z,98860.66
2022-08-10T07:41:18.002Z,98859.56
2022-08-10T07:44:23.239Z,98860.06
2022-08-10T07:47:53.624Z,98860.00
2022-08-10T07:50:59.299Z,98861.44
2022-08-10T07:54:05.912Z,98856.16
2022-08-10T07:57:16.915Z,98858.56
2022-08-10T08:00:34.893Z,98852.56
2022-08-10T08:03:41.589Z,98859.88
2022-08-10T08:06:45.493Z,98854.44
2022-08-10T08:09:57.879Z,98858.31
2022-08-10T08:13:04.421Z,98851.22
2022-08-10T08:16:15.637Z,98858.84
2022-08-10T08:19:28.176Z,98854.56
2022-08-10T08:24:07.236Z,98865.16
2022-08-10T08:26:03.215Z,98850.13
2022-08-10T08:29:06.410Z,98856.13
2022-08-10T08:32:11.376Z,98858.19
2022-08-10T08:35:19.346Z,98861.44
2022-08-10T08:38:32.850Z,98855.59
2022-08-10T08:42:02.454Z,98859.84
2022-08-10T08:45:15.111Z,98847.53
2022-08-10T08:48:36.673Z,98849.31
2022-08-10T08:52:09.849Z,98842.72
2022-08-10T08:56:03.117Z,98842.09
2022-08-10T08:59:07.867Z,98845.31
2022-08-10T09:02:24.813Z,98845.78
2022-08-10T09:05:58.930Z,98847.75
2022-08-10T09:09:33.447Z,98834.88
2022-08-10T09:12:48.811Z,98834.28
2022-08-10T09:16:00.497Z,98842.44
2022-08-10T09:19:09.339Z,98840.22
2022-08-10T09:22:19.478Z,98833.84
2022-08-10T09:25:27.213Z,98822.47
2022-08-10T09:28:37.175Z,98811.59
2022-08-10T09:31:55.521Z,98826.06
2022-08-10T09:36:27.003Z,98812.28
2022-08-10T09:38:50.003Z,98813.25
2022-08-10T09:42:05.575Z,98822.94
2022-08-10T09:45:17.610Z,98810.53
2022-08-10T09:48:28.042Z,98818.25
2022-08-10T09:51:45.878Z,98819.75
2022-08-10T09:55:05.153Z,98815.38
2022-08-10T09:58:26.010Z,98796.06
2022-08-10T10:02:02.868Z,98795.22
2022-08-10T10:05:08.952Z,98800.84
2022-08-10T10:08:20.322Z,98804.06
2022-08-10T10:11:30.042Z,98798.91
2022-08-10T10:15:01.431Z,98798.09
2022-08-10T10:18:30.705Z,98798.13
2022-08-10T10:21:55.427Z,98804.75
2022-08-10T10:25:18.194Z,98796.31
2022-08-10T10:29:11.513Z,98781.78
2022-08-10T10:32:09.433Z,98780.81
2022-08-10T10:35:20.777Z,98790.75
2022-08-10T10:38:26.943Z,98782.31
2022-08-10T10:41:56.135Z,98775.56
2022-08-10T10:45:14.636Z,98775.75
2022-08-10T10:48:29.272Z,98779.75
2022-08-10T10:51:35.678Z,98785.69
2022-08-10T10:54:45.895Z,98780.19
2022-08-10T10:58:01.093Z,98766.81
2022-08-10T11:01:12.231Z,98775.84
2022-08-10T11:04:25.378Z,98758.44
2022-08-10T11:07:35.648Z,98762.75
2022-08-10T11:10:47.232Z,98749.72
2022-08-10T11:14:26.143Z,98751.38
2022-08-10T11:17:31.062Z,98754.94
2022-08-10T11:20:45.030Z,98748.22
2022-08-10T11:24:48.124Z,98741.06
2022-08-10T11:27:26.270Z,98754.94
2022-08-10T11:30:37.710Z,98756.13
2022-08-10T11:34:11.326Z,98747.44
2022-08-10T11:37:19.558Z,98742.28
2022-08-10T11:40:29.166Z,98741.88
2022-08-10T11:43:39.130Z,98743.03
2022-08-10T11:46:47.300Z,98742.97
2022-08-10T11:49:54.724Z,98746.63
2022-08-10T11:53:11.050Z,98729.22
2022-08-10T11:56:23.015Z,98737.91
2022-08-10T11:59:46.070Z,98738.34
2022-08-10T12:02:53.586Z,98730.03
2022-08-10T12:05:56.972Z,98726.06
2022-08-10T12:10:11.389Z,98721.28
2022-08-10T12:12:30.341Z,98712.16
2022-08-10T12:15:39.905Z,98724.47
2022-08-10T12:18:48.008Z,98718.13
2022-08-10T12:21:57.854Z,98726.84
2022-08-10T12:25:08.489Z,98720.84
2022-08-10T12:28:15.695Z,98721.59
2022-08-10T12:31:20.155Z,98716.09
2022-08-10T12:34:31.152Z,98705.34
2022-08-10T12:37:40.008Z,98713.63
2022-08-10T12:40:48.859Z,98709.22
2022-08-10T12:44:07.561Z,98699.72
2022-08-10T12:47:21.129Z,98702.47
2022-08-10T12:50:33.247Z,98708.09
2022-08-10T12:53:51.118Z,98697.47
2022-08-10T12:57:02.958Z,98704.56
2022-08-10T13:00:10.525Z,98693.94
2022-08-10T13:04:21.150Z,98700.25
2022-08-10T13:06:49.672Z,98689.13
2022-08-10T13:09:56.375Z,98680.72
2022-08-10T13:13:02.180Z,98688.31
2022-08-10T13:16:06.569Z,98681.63
2022-08-10T13:19:11.780Z,98669.69
2022-08-10T13:22:17.431Z,98662.91
2022-08-10T13:25:29.235Z,98661.75
2022-08-10T13:28:43.289Z,98661.34
2022-08-10T13:32:09.014Z,98660.63
2022-08-10T13:35:17.517Z,98655.53
2022-08-10T13:38:23.128Z,98652.38
2022-08-10T13:41:29.563Z,98648.34
2022-08-10T13:44:38.233Z,98642.75
2022-08-10T13:47:49.403Z,98641.88
2022-08-10T13:50:58.924Z,98645.31
2022-08-10T13:54:03.690Z,98634.50
2022-08-10T13:57:07.839Z,98632.09
2022-08-10T14:00:36.500Z,98636.88
2022-08-10T14:03:40.749Z,98634.22
2022-08-10T14:06:51.978Z,98635.44
2022-08-10T14:10:04.925Z,98635.56
2022-08-10T14:13:09.749Z,98629.13
2022-08-10T14:16:15.355Z,98626.31
2022-08-10T14:19:20.487Z,98625.06
2022-08-10T14:22:34.083Z,98621.94
2022-08-10T14:25:48.711Z,98621.88
2022-08-10T14:28:55.977Z,98610.44
2022-08-10T14:32:02.601Z,98614.72
2022-08-10T14:36:18.836Z,98614.19
2022-08-10T14:38:35.102Z,98610.47
2022-08-10T14:42:01.380Z,98602.28
2022-08-10T14:45:08.294Z,98597.97
2022-08-10T14:48:16.874Z,98601.56
2022-08-10T14:51:21.826Z,98601.59
2022-08-10T14:54:29.625Z,98592.19
2022-08-10T14:58:18.845Z,98585.47
2022-08-10T15:00:59.234Z,98583.94
2022-08-10T15:04:07.447Z,98596.66
2022-08-10T15:07:20.768Z,98591.47
2022-08-10T15:10:25.128Z,98592.72
2022-08-10T15:13:34.486Z,98591.53
2022-08-10T15:16:38.513Z,98581.22
2022-08-10T15:20:02.380Z,98585.84
2022-08-10T15:23:31.113Z,98583.56
2022-08-10T15:26:35.250Z,98583.53
2022-08-10T15:29:56.537Z,98575.75
2022-08-10T15:33:59.373Z,98577.31
2022-08-10T15:37:39.628Z,98580.19
2022-08-10T15:40:52.027Z,98580.28
2022-08-10T15:43:55.945Z,98567.59
2022-08-10T15:47:02.575Z,98563.22
2022-08-10T15:50:08.478Z,98558.47
2022-08-10T15:53:17.105Z,98559.25
2022-08-10T15:56:28.104Z,98561.66
2022-08-10T15:59:34.310Z,98559.28
2022-08-10T16:02:50.410Z,98553.78
2022-08-10T16:06:02.183Z,98558.91
2022-08-10T16:10:24.277Z,98566.06
2022-08-10T16:12:42.611Z,98553.44
2022-08-10T16:15:53.315Z,98553.88
2022-08-10T16:18:56.349Z,98552.69
2022-08-10T16:22:02.623Z,98543.59
2022-08-10T16:25:47.802Z,98545.53
2022-08-10T16:28:58.852Z,98538.03
2022-08-10T16:32:04.321Z,98537.25
2022-08-10T16:35:10.487Z,98546.34
2022-08-10T16:38:15.195Z,98538.03
2022-08-10T16:42:03.331Z,98532.09
2022-08-10T16:45:00.734Z,98536.81
2022-08-10T16:48:12.659Z,98527.72
2022-08-10T16:51:26.883Z,98524.13
2022-08-10T16:54:45.770Z,98536.34
2022-08-10T16:58:15.077Z,98531.16
2022-08-10T17:01:51.509Z,98527.97
2022-08-10T17:06:03.342Z,98524.41
2022-08-10T17:08:55.286Z,98515.66
2022-08-10T17:12:15.098Z,98521.56
2022-08-10T17:15:45.403Z,98518.38
2022-08-10T17:19:03.869Z,98524.66
2022-08-10T17:22:21.630Z,98527.69
2022-08-10T17:25:48.826Z,98521.66
2022-08-10T17:29:02.727Z,98526.75
2022-08-10T17:32:21.326Z,98523.56
2022-08-10T17:35:30.783Z,98519.56
2022-08-10T17:38:38.903Z,98521.81
2022-08-10T17:41:49.355Z,98517.81
2022-08-10T17:44:58.076Z,98521.75
2022-08-10T17:48:09.838Z,98520.91
2022-08-10T17:51:21.891Z,98525.56
2022-08-10T17:54:39.460Z,98524.34
2022-08-10T17:58:01.946Z,98532.91
2022-08-10T18:01:41.240Z,98530.91
2022-08-10T18:04:56.925Z,98530.72
2022-08-10T18:08:36.833Z,98532.66
2022-08-10T18:12:18.126Z,98544.00
2022-08-10T18:15:27.587Z,98537.63
2022-08-10T18:18:46.932Z,98538.75
2022-08-10T18:22:00.106Z,98547.31
2022-08-10T18:25:35.138Z,98547.31
2022-08-10T18:29:03.598Z,98542.91
2022-08-10T18:32:20.015Z,98543.97
2022-08-10T18:35:40.909Z,98543.91
2022-08-10T18:38:56.591Z,98542.56
2022-08-10T18:42:15.724Z,98541.66
2022-08-10T18:45:39.033Z,98542.28
2022-08-10T18:49:04.308Z,98546.78
2022-08-10T18:52:29.903Z,98559.16
2022-08-10T18:56:09.374Z,98558.47
2022-08-10T19:00:07.888Z,98558.31
2022-08-10T19:03:54.343Z,98556.91
2022-08-10T19:07:33.673Z,98562.47
2022-08-10T19:14:47.424Z,98580.88
2022-08-10T19:18:26.655Z,98580.47
2022-08-10T19:22:04.111Z,98580.50
2022-08-10T19:26:40.981Z,98588.16
2022-08-10T19:29:13.899Z,98591.84
2022-08-10T19:32:52.840Z,98593.63
2022-08-10T19:36:13.174Z,98589.50
2022-08-10T19:39:28.642Z,98597.75
2022-08-10T19:42:40.758Z,98593.19
2022-08-10T19:46:03.206Z,98597.56
2022-08-10T19:49:20.525Z,98591.84
2022-08-10T19:52:35.455Z,98589.63
2022-08-10T19:55:47.089Z,98591.03
2022-08-10T19:59:17.436Z,98598.38
2022-08-10T20:03:04.257Z,98604.28
2022-08-10T20:06:24.585Z,98601.81
2022-08-10T20:09:36.686Z,98604.13
2022-08-10T20:12:52.741Z,98597.81
2022-08-10T20:16:07.716Z,98602.06
2022-08-10T20:19:27.222Z,98610.19
2022-08-10T20:22:56.957Z,98605.44
2022-08-10T20:26:07.085Z,98605.34
2022-08-10T20:29:57.449Z,98607.28
2022-08-10T20:32:53.157Z,98605.69
2022-08-10T20:36:15.588Z,98604.53
2022-08-10T20:39:31.450Z,98608.03
2022-08-10T20:42:54.288Z,98614.09
2022-08-10T20:46:11.198Z,98610.28
2022-08-10T20:49:37.554Z,98615.09
2022-08-10T20:52:54.363Z,98614.81
2022-08-10T20:56:20.681Z,98611.28
2022-08-10T21:00:02.507Z,98610.75
2022-08-10T21:03:58.557Z,98609.66
2022-08-10T21:07:44.109Z,98598.13
2022-08-10T21:11:11.915Z,98605.31
2022-08-10T21:14:33.093Z,98603.06
2022-08-10T21:18:09.633Z,98602.72
2022-08-10T21:25:15.488Z,98598.09
2022-08-10T21:28:59.768Z,98599.41
2022-08-10T21:32:32.987Z,98602.22
2022-08-10T21:35:57.171Z,98623.06
2022-08-10T21:39:13.981Z,98615.75
2022-08-10T21:42:49.034Z,98615.06
2022-08-10T21:46:38.365Z,98608.56
2022-08-10T21:54:19.177Z,98603.00
2022-08-10T22:01:54.844Z,98607.16
2022-08-10T22:09:18.514Z,98611.16
2022-08-10T22:13:01.584Z,98609.81
2022-08-10T22:16:29.725Z,98611.06
2022-08-10T22:19:58.952Z,98611.28
2022-08-10T22:23:43.955Z,98615.50
2022-08-10T22:27:47.333Z,98614.88
2022-08-10T22:31:37.075Z,98604.25
2022-08-10T22:35:22.383Z,98611.00
2022-08-10T22:39:03.860Z,98605.59
2022-08-10T22:42:59.486Z,98616.47
2022-08-10T22:46:28.500Z,98618.47
2022-08-10T22:49:34.778Z,98616.13
2022-08-10T22:53:08.172Z,98621.84
2022-08-10T22:57:06.289Z,98617.88
2022-08-10T23:00:39.914Z,98624.16
2022-08-10T23:04:35.767Z,98619.09
2022-08-10T23:07:52.224Z,98612.56
2022-08-10T23:11:08.431Z,98619.03
2022-08-10T23:14:21.493Z,98620.50
2022-08-10T23:18:00.849Z,98616.19
2022-08-10T23:21:16.512Z,98618.91
2022-08-10T23:24:30.774Z,98613.97
2022-08-10T23:27:45.914Z,98614.75
2022-08-10T23:30:59.456Z,98617.84
2022-08-10T23:34:11.165Z,98616.88
2022-08-10T23:37:20.624Z,98619.47
2022-08-10T23:40:53.101Z,98611.50
2022-08-10T23:44:12.201Z,98603.47
2022-08-10T23:47:30.520Z,98605.91
2022-08-10T23:50:36.437Z,98607.22
2022-08-10T23:54:03.799Z,98609.81
2022-08-10T23:57:10.454Z,98611.09
